West Woods, Connecticut
Current Conditions -  °F | °C
As of 11:53 PM on Friday 24 Oct 2014 (Local Time) from KPOU Reporting Station
Clear Clear  
Wind Chill: 42°   Ceiling: Unl
Heat Index: 42°   Visibility: 9mi
Dew Point: 40°   Wind: 3mph
Humidity: 92%   Direction: 70°ENE
Pressure: 29.85"   Gusts: NA
Location:  41.8554°N, 73.4421°W
Report Text: KPOU 250353Z AUTO 07003KT 9SM CLR 06/04 A2985 RMK AO2 SLP105 T00560044 TSNO
Loading
Personal Weather Stations






























Interactive Weather Map
Tropical Storm Tracking
New forecast layout! Learn more

10-Day Weather Forecast

Advertisements
Track Severe Weather on mobile